sensor_id;sensor_type;location;lat;lon;timestamp;pressure;altitude;pressure_sealevel;temperature;humidity
10470;BME280;5282;47.052;15.458;2024-02-04T00:01:54;98088.50;;;1.79;100.00
10470;BME280;5282;47.052;15.458;2024-02-04T00:04:25;98085.16;;;1.63;100.00
10470;BME280;5282;47.052;15.458;2024-02-04T00:06:53;98075.28;;;1.65;100.00
10470;BME280;5282;47.052;15.458;2024-02-04T00:09:20;98068.50;;;1.74;100.00
10470;BME280;5282;47.052;15.458;2024-02-04T00:11:48;98061.91;;;1.66;100.00
10470;BME280;5282;47.052;15.458;2024-02-04T00:14:15;98062.06;;;1.36;100.00
10470;BME280;5282;47.052;15.458;2024-02-04T00:16:42;98059.69;;;1.46;100.00
10470;BME280;5282;47.052;15.458;2024-02-04T00:19:09;98056.91;;;1.47;100.00
10470;BME280;5282;47.052;15.458;2024-02-04T00:21:37;98049.84;;;1.33;100.00
10470;BME280;5282;47.052;15.458;2024-02-04T00:24:05;98067.75;;;1.01;100.00
10470;BME280;5282;47.052;15.458;2024-02-04T00:26:31;98069.38;;;1.03;100.00
10470;BME280;5282;47.052;15.458;2024-02-04T00:28:58;98066.22;;;1.11;100.00
10470;BME280;5282;47.052;15.458;2024-02-04T00:31:25;98052.59;;;1.32;100.00
10470;BME280;5282;47.052;15.458;2024-02-04T00:33:52;98050.91;;;1.31;100.00
10470;BME280;5282;47.052;15.458;2024-02-04T00:36:19;98053.84;;;1.26;100.00
10470;BME280;5282;47.052;15.458;2024-02-04T00:38:48;98067.72;;;1.44;100.00
10470;BME280;5282;47.052;15.458;2024-02-04T00:41:15;98064.88;;;1.47;100.00
10470;BME280;5282;47.052;15.458;2024-02-04T00:43:42;98067.00;;;1.28;100.00
10470;BME280;5282;47.052;15.458;2024-02-04T00:46:09;98056.38;;;1.28;100.00
10470;BME280;5282;47.052;15.458;2024-02-04T00:48:36;98068.59;;;1.30;100.00
10470;BME280;5282;47.052;15.458;2024-02-04T00:51:03;98070.41;;;1.15;100.00
10470;BME280;5282;47.052;15.458;2024-02-04T00:53:30;98053.63;;;1.29;100.00
10470;BME280;5282;47.052;15.458;2024-02-04T00:56:01;98050.72;;;1.19;100.00
10470;BME280;5282;47.052;15.458;2024-02-04T00:58:27;98046.94;;;1.09;100.00
10470;BME280;5282;47.052;15.458;2024-02-04T01:00:54;98042.09;;;0.87;100.00
10470;BME280;5282;47.052;15.458;2024-02-04T01:03:21;98036.22;;;0.82;100.00
10470;BME280;5282;47.052;15.458;2024-02-04T01:05:48;98035.56;;;0.92;100.00
10470;BME280;5282;47.052;15.458;2024-02-04T01:08:15;98042.66;;;1.06;100.00
10470;BME280;5282;47.052;15.458;2024-02-04T01:10:42;98036.88;;;1.14;100.00
10470;BME280;5282;47.052;15.458;2024-02-04T01:13:10;98036.69;;;1.03;100.00
10470;BME280;5282;47.052;15.458;2024-02-04T01:15:37;98033.84;;;1.06;100.00
10470;BME280;5282;47.052;15.458;2024-02-04T01:18:04;98054.59;;;0.99;100.00
10470;BME280;5282;47.052;15.458;2024-02-04T01:20:31;98065.78;;;0.90;100.00
10470;BME280;5282;47.052;15.458;2024-02-04T01:22:59;98066.75;;;1.03;100.00
10470;BME280;5282;47.052;15.458;2024-02-04T01:25:25;98057.03;;;1.17;100.00
10470;BME280;5282;47.052;15.458;2024-02-04T01:27:55;98048.34;;;1.15;100.00
10470;BME280;5282;47.052;15.458;2024-02-04T01:30:23;98054.78;;;1.11;100.00
10470;BME280;5282;47.052;15.458;2024-02-04T01:32:50;98056.19;;;1.02;100.00
10470;BME280;5282;47.052;15.458;2024-02-04T01:35:17;98058.84;;;0.87;100.00
10470;BME280;5282;47.052;15.458;2024-02-04T01:37:43;98058.97;;;1.00;100.00
10470;BME280;5282;47.052;15.458;2024-02-04T01:40:14;98052.78;;;1.00;100.00
10470;BME280;5282;47.052;15.458;2024-02-04T01:42:41;98062.63;;;1.12;100.00
10470;BME280;5282;47.052;15.458;2024-02-04T01:45:09;98071.75;;;1.08;100.00
10470;BME280;5282;47.052;15.458;2024-02-04T01:47:40;98066.06;;;0.85;100.00
10470;BME280;5282;47.052;15.458;2024-02-04T01:50:08;98057.63;;;0.79;100.00
10470;BME280;5282;47.052;15.458;2024-02-04T01:52:36;98048.25;;;0.73;100.00
10470;BME280;5282;47.052;15.458;2024-02-04T01:55:05;98050.09;;;0.56;100.00
10470;BME280;5282;47.052;15.458;2024-02-04T01:57:32;98057.69;;;0.77;100.00
10470;BME280;5282;47.052;15.458;2024-02-04T02:00:00;98058.47;;;0.94;100.00
10470;BME280;5282;47.052;15.458;2024-02-04T02:02:28;98054.09;;;0.78;100.00
10470;BME280;5282;47.052;15.458;2024-02-04T02:04:59;98056.38;;;0.99;100.00
10470;BME280;5282;47.052;15.458;2024-02-04T02:07:27;98049.88;;;0.90;100.00
10470;BME280;5282;47.052;15.458;2024-02-04T02:09:57;98039.16;;;0.91;100.00
10470;BME280;5282;47.052;15.458;2024-02-04T02:12:26;98022.94;;;0.82;100.00
10470;BME280;5282;47.052;15.458;2024-02-04T02:15:07;98013.31;;;0.95;100.00
10470;BME280;5282;47.052;15.458;2024-02-04T02:17:42;98033.19;;;0.73;100.00
10470;BME280;5282;47.052;15.458;2024-02-04T02:20:20;98037.28;;;0.94;100.00
10470;BME280;5282;47.052;15.458;2024-02-04T02:22:50;98033.56;;;0.96;100.00
10470;BME280;5282;47.052;15.458;2024-02-04T02:25:20;98023.44;;;1.03;100.00
10470;BME280;5282;47.052;15.458;2024-02-04T02:27:48;98025.50;;;1.12;100.00
10470;BME280;5282;47.052;15.458;2024-02-04T02:30:16;98029.78;;;0.86;100.00
10470;BME280;5282;47.052;15.458;2024-02-04T02:32:45;98034.72;;;0.92;100.00
10470;BME280;5282;47.052;15.458;2024-02-04T02:35:15;98036.63;;;0.90;100.00
10470;BME280;5282;47.052;15.458;2024-02-04T02:37:46;98036.50;;;0.91;100.00
10470;BME280;5282;47.052;15.458;2024-02-04T02:40:23;98036.31;;;0.80;100.00
10470;BME280;5282;47.052;15.458;2024-02-04T02:42:51;98035.84;;;0.73;100.00
10470;BME280;5282;47.052;15.458;2024-02-04T02:45:20;98032.91;;;0.78;100.00
10470;BME280;5282;47.052;15.458;2024-02-04T02:47:49;98017.00;;;0.92;100.00
10470;BME280;5282;47.052;15.458;2024-02-04T02:50:16;98025.78;;;0.93;100.00
10470;BME280;5282;47.052;15.458;2024-02-04T02:52:44;98020.78;;;0.88;100.00
10470;BME280;5282;47.052;15.458;2024-02-04T02:55:11;98017.94;;;0.91;100.00
10470;BME280;5282;47.052;15.458;2024-02-04T02:57:39;98023.44;;;0.88;100.00
10470;BME280;5282;47.052;15.458;2024-02-04T03:00:07;98029.22;;;0.95;100.00
10470;BME280;5282;47.052;15.458;2024-02-04T03:02:34;98027.03;;;1.02;100.00
10470;BME280;5282;47.052;15.458;2024-02-04T03:05:02;98019.28;;;0.84;100.00
10470;BME280;5282;47.052;15.458;2024-02-04T03:07:29;98032.22;;;0.60;100.00
10470;BME280;5282;47.052;15.458;2024-02-04T03:09:55;98023.25;;;0.63;100.00
10470;BME280;5282;47.052;15.458;2024-02-04T03:12:23;98015.69;;;0.71;100.00
10470;BME280;5282;47.052;15.458;2024-02-04T03:14:51;98043.97;;;0.56;100.00
10470;BME280;5282;47.052;15.458;2024-02-04T03:17:18;98044.72;;;0.72;100.00
10470;BME280;5282;47.052;15.458;2024-02-04T03:19:47;98027.31;;;0.54;100.00
10470;BME280;5282;47.052;15.458;2024-02-04T03:22:23;98026.47;;;0.68;100.00
10470;BME280;5282;47.052;15.458;2024-02-04T03:24:50;98032.72;;;0.81;100.00
10470;BME280;5282;47.052;15.458;2024-02-04T03:27:23;98026.75;;;0.77;100.00
10470;BME280;5282;47.052;15.458;2024-02-04T03:29:51;98004.41;;;0.82;100.00
10470;BME280;5282;47.052;15.458;2024-02-04T03:32:19;98002.59;;;0.68;100.00
10470;BME280;5282;47.052;15.458;2024-02-04T03:34:46;97998.06;;;0.70;100.00
10470;BME280;5282;47.052;15.458;2024-02-04T03:37:13;97997.50;;;0.79;100.00
10470;BME280;5282;47.052;15.458;2024-02-04T03:39:46;97995.50;;;0.83;100.00
10470;BME280;5282;47.052;15.458;2024-02-04T03:42:14;97998.06;;;0.84;100.00
10470;BME280;5282;47.052;15.458;2024-02-04T03:44:40;97992.00;;;0.82;100.00
10470;BME280;5282;47.052;15.458;2024-02-04T03:47:09;97989.66;;;0.77;100.00
10470;BME280;5282;47.052;15.458;2024-02-04T03:49:35;97981.88;;;0.89;100.00
10470;BME280;5282;47.052;15.458;2024-02-04T03:52:03;97981.78;;;0.90;100.00
10470;BME280;5282;47.052;15.458;2024-02-04T03:54:30;97989.00;;;0.74;100.00
10470;BME280;5282;47.052;15.458;2024-02-04T03:56:57;97987.47;;;0.70;100.00
10470;BME280;5282;47.052;15.458;2024-02-04T03:59:24;97986.16;;;0.63;100.00
10470;BME280;5282;47.052;15.458;2024-02-04T04:01:51;97991.81;;;0.71;100.00
10470;BME280;5282;47.052;15.458;2024-02-04T04:04:21;98004.13;;;0.57;100.00
10470;BME280;5282;47.052;15.458;2024-02-04T04:06:48;98018.38;;;0.40;100.00
10470;BME280;5282;47.052;15.458;2024-02-04T04:09:15;98013.38;;;0.50;100.00
10470;BME280;5282;47.052;15.458;2024-02-04T04:11:42;98009.63;;;0.69;100.00
10470;BME280;5282;47.052;15.458;2024-02-04T04:14:09;98004.09;;;0.86;100.00
10470;BME280;5282;47.052;15.458;2024-02-04T04:16:36;97998.63;;;0.89;100.00
10470;BME280;5282;47.052;15.458;2024-02-04T04:19:03;97994.47;;;0.71;100.00
10470;BME280;5282;47.052;15.458;2024-02-04T04:21:32;98001.75;;;0.82;100.00
10470;BME280;5282;47.052;15.458;2024-02-04T04:23:58;98018.22;;;0.87;100.00
10470;BME280;5282;47.052;15.458;2024-02-04T04:26:25;98022.50;;;0.89;100.00
10470;BME280;5282;47.052;15.458;2024-02-04T04:28:52;98027.13;;;1.00;100.00
10470;BME280;5282;47.052;15.458;2024-02-04T04:31:19;98017.53;;;1.12;100.00
10470;BME280;5282;47.052;15.458;2024-02-04T04:33:46;98019.72;;;1.20;100.00
10470;BME280;5282;47.052;15.458;2024-02-04T04:36:13;98014.22;;;1.23;100.00
10470;BME280;5282;47.052;15.458;2024-02-04T04:38:42;98017.81;;;1.36;100.00
10470;BME280;5282;47.052;15.458;2024-02-04T04:41:08;98022.78;;;1.14;100.00
10470;BME280;5282;47.052;15.458;2024-02-04T04:43:36;98019.63;;;1.21;100.00
10470;BME280;5282;47.052;15.458;2024-02-04T04:46:03;98012.81;;;1.32;100.00
10470;BME280;5282;47.052;15.458;2024-02-04T04:48:30;97995.91;;;1.33;100.00
10470;BME280;5282;47.052;15.458;2024-02-04T04:50:57;97996.19;;;1.28;100.00
10470;BME280;5282;47.052;15.458;2024-02-04T04:53:24;98019.22;;;1.42;100.00
10470;BME280;5282;47.052;15.458;2024-02-04T04:55:52;98009.56;;;1.41;100.00
10470;BME280;5282;47.052;15.458;2024-02-04T04:58:19;98023.97;;;1.37;100.00
10470;BME280;5282;47.052;15.458;2024-02-04T05:00:46;98022.66;;;1.30;100.00
10470;BME280;5282;47.052;15.458;2024-02-04T05:03:15;98004.22;;;1.14;100.00
10470;BME280;5282;47.052;15.458;2024-02-04T05:05:42;97999.63;;;1.16;100.00
10470;BME280;5282;47.052;15.458;2024-02-04T05:08:09;98010.00;;;1.06;100.00
10470;BME280;5282;47.052;15.458;2024-02-04T05:10:36;98020.97;;;1.00;100.00
10470;BME280;5282;47.052;15.458;2024-02-04T05:13:04;98020.13;;;1.14;100.00
10470;BME280;5282;47.052;15.458;2024-02-04T05:15:31;98026.28;;;1.00;100.00
10470;BME280;5282;47.052;15.458;2024-02-04T05:17:59;98033.09;;;1.04;100.00
10470;BME280;5282;47.052;15.458;2024-02-04T05:20:26;98036.41;;;0.93;100.00
10470;BME280;5282;47.052;15.458;2024-02-04T05:22:54;98035.16;;;1.13;100.00
10470;BME280;5282;47.052;15.458;2024-02-04T05:25:22;98038.75;;;1.27;100.00
10470;BME280;5282;47.052;15.458;2024-02-04T05:27:49;98032.88;;;1.36;100.00
10470;BME280;5282;47.052;15.458;2024-02-04T05:30:18;98035.63;;;1.34;100.00
10470;BME280;5282;47.052;15.458;2024-02-04T05:32:45;98028.91;;;1.43;100.00
10470;BME280;5282;47.052;15.458;2024-02-04T05:35:11;98028.00;;;1.57;100.00
10470;BME280;5282;47.052;15.458;2024-02-04T05:37:39;98014.53;;;1.60;100.00
10470;BME280;5282;47.052;15.458;2024-02-04T05:40:06;98012.06;;;1.57;100.00
10470;BME280;5282;47.052;15.458;2024-02-04T05:42:34;98024.91;;;1.21;100.00
10470;BME280;5282;47.052;15.458;2024-02-04T05:45:02;98031.31;;;0.90;100.00
10470;BME280;5282;47.052;15.458;2024-02-04T05:47:32;98039.81;;;0.95;100.00
10470;BME280;5282;47.052;15.458;2024-02-04T05:50:00;98055.16;;;1.19;100.00
10470;BME280;5282;47.052;15.458;2024-02-04T05:52:27;98050.06;;;0.87;100.00
10470;BME280;5282;47.052;15.458;2024-02-04T05:54:54;98051.84;;;0.72;100.00
10470;BME280;5282;47.052;15.458;2024-02-04T05:57:20;98045.22;;;0.79;100.00
10470;BME280;5282;47.052;15.458;2024-02-04T05:59:47;98044.44;;;0.77;100.00
10470;BME280;5282;47.052;15.458;2024-02-04T06:02:14;98028.66;;;0.75;100.00
10470;BME280;5282;47.052;15.458;2024-02-04T06:04:43;98049.38;;;0.69;100.00
10470;BME280;5282;47.052;15.458;2024-02-04T06:07:10;98044.16;;;0.82;100.00
10470;BME280;5282;47.052;15.458;2024-02-04T06:09:37;98052.69;;;0.87;100.00
10470;BME280;5282;47.052;15.458;2024-02-04T06:12:04;98047.03;;;0.79;100.00
10470;BME280;5282;47.052;15.458;2024-02-04T06:14:33;98033.50;;;0.98;100.00
10470;BME280;5282;47.052;15.458;2024-02-04T06:16:59;98045.78;;;0.84;100.00
10470;BME280;5282;47.052;15.458;2024-02-04T06:19:26;98055.72;;;0.95;100.00
10470;BME280;5282;47.052;15.458;2024-02-04T06:21:55;98074.88;;;1.00;100.00
10470;BME280;5282;47.052;15.458;2024-02-04T06:24:21;98073.72;;;1.19;100.00
10470;BME280;5282;47.052;15.458;2024-02-04T06:26:49;98058.84;;;1.16;100.00
10470;BME280;5282;47.052;15.458;2024-02-04T06:29:15;98055.44;;;1.14;100.00
10470;BME280;5282;47.052;15.458;2024-02-04T06:31:47;98057.44;;;0.96;100.00
10470;BME280;5282;47.052;15.458;2024-02-04T06:34:14;98051.38;;;1.23;100.00
10470;BME280;5282;47.052;15.458;2024-02-04T06:36:45;98054.97;;;1.36;100.00
10470;BME280;5282;47.052;15.458;2024-02-04T06:39:13;98082.72;;;1.16;100.00
10470;BME280;5282;47.052;15.458;2024-02-04T06:41:40;98079.59;;;1.24;100.00
10470;BME280;5282;47.052;15.458;2024-02-04T06:44:07;98069.53;;;1.29;100.00
10470;BME280;5282;47.052;15.458;2024-02-04T06:46:35;98073.25;;;1.41;100.00
10470;BME280;5282;47.052;15.458;2024-02-04T06:49:02;98084.50;;;1.30;100.00
10470;BME280;5282;47.052;15.458;2024-02-04T06:51:53;98106.03;;;1.26;100.00
10470;BME280;5282;47.052;15.458;2024-02-04T06:54:23;98098.13;;;1.53;100.00
10470;BME280;5282;47.052;15.458;2024-02-04T06:56:50;98086.63;;;1.81;100.00
10470;BME280;5282;47.052;15.458;2024-02-04T06:59:17;98080.13;;;2.00;100.00
10470;BME280;5282;47.052;15.458;2024-02-04T07:01:44;98073.88;;;2.01;100.00
10470;BME280;5282;47.052;15.458;2024-02-04T07:04:12;98106.38;;;1.77;100.00
10470;BME280;5282;47.052;15.458;2024-02-04T07:06:38;98103.41;;;1.82;100.00
10470;BME280;5282;47.052;15.458;2024-02-04T07:09:05;98090.69;;;2.14;100.00
10470;BME280;5282;47.052;15.458;2024-02-04T07:11:33;98097.84;;;2.27;100.00
10470;BME280;5282;47.052;15.458;2024-02-04T07:14:00;98102.84;;;2.04;100.00
10470;BME280;5282;47.052;15.458;2024-02-04T07:16:35;98115.22;;;1.91;100.00
10470;BME280;5282;47.052;15.458;2024-02-04T07:19:01;98089.81;;;2.01;100.00
10470;BME280;5282;47.052;15.458;2024-02-04T07:21:29;98091.09;;;2.08;100.00
10470;BME280;5282;47.052;15.458;2024-02-04T07:23:56;98109.66;;;2.23;100.00
10470;BME280;5282;47.052;15.458;2024-02-04T07:26:23;98110.63;;;2.35;100.00
10470;BME280;5282;47.052;15.458;2024-02-04T07:28:51;98102.28;;;2.54;100.00
10470;BME280;5282;47.052;15.458;2024-02-04T07:31:18;98102.09;;;2.70;100.00
10470;BME280;5282;47.052;15.458;2024-02-04T07:33:51;98086.69;;;2.75;100.00
10470;BME280;5282;47.052;15.458;2024-02-04T07:36:39;98068.94;;;3.01;100.00
10470;BME280;5282;47.052;15.458;2024-02-04T07:39:06;98088.41;;;2.76;100.00
10470;BME280;5282;47.052;15.458;2024-02-04T07:41:33;98086.47;;;2.78;100.00
10470;BME280;5282;47.052;15.458;2024-02-04T07:44:03;98090.19;;;2.62;100.00
10470;BME280;5282;47.052;15.458;2024-02-04T07:46:30;98094.53;;;2.64;100.00
10470;BME280;5282;47.052;15.458;2024-02-04T07:48:57;98090.41;;;2.85;100.00
10470;BME280;5282;47.052;15.458;2024-02-04T07:51:23;98093.16;;;2.84;100.00
10470;BME280;5282;47.052;15.458;2024-02-04T07:53:50;98105.47;;;2.59;100.00
10470;BME280;5282;47.052;15.458;2024-02-04T07:56:17;98118.22;;;2.54;100.00
10470;BME280;5282;47.052;15.458;2024-02-04T07:58:44;98119.38;;;2.50;100.00
10470;BME280;5282;47.052;15.458;2024-02-04T08:01:12;98107.09;;;2.61;100.00
10470;BME280;5282;47.052;15.458;2024-02-04T08:03:39;98096.56;;;2.86;100.00
10470;BME280;5282;47.052;15.458;2024-02-04T08:06:06;98108.59;;;2.78;100.00
10470;BME280;5282;47.052;15.458;2024-02-04T08:08:35;98107.13;;;3.00;100.00
10470;BME280;5282;47.052;15.458;2024-02-04T08:11:01;98101.06;;;3.24;100.00
10470;BME280;5282;47.052;15.458;2024-02-04T08:13:28;98075.91;;;3.41;100.00
10470;BME280;5282;47.052;15.458;2024-02-04T08:15:55;98073.34;;;3.52;100.00
10470;BME280;5282;47.052;15.458;2024-02-04T08:18:23;98081.91;;;3.69;100.00
10470;BME280;5282;47.052;15.458;2024-02-04T08:20:50;98079.16;;;3.95;100.00
10470;BME280;5282;47.052;15.458;2024-02-04T08:23:17;98069.53;;;4.05;100.00
10470;BME280;5282;47.052;15.458;2024-02-04T08:25:44;98072.78;;;4.22;100.00
10470;BME280;5282;47.052;15.458;2024-02-04T08:28:12;98081.66;;;4.33;100.00
10470;BME280;5282;47.052;15.458;2024-02-04T08:30:39;98067.56;;;4.56;100.00
10470;BME280;5282;47.052;15.458;2024-02-04T08:33:06;98068.22;;;4.71;100.00
10470;BME280;5282;47.052;15.458;2024-02-04T08:35:35;98076.88;;;4.97;100.00
10470;BME280;5282;47.052;15.458;2024-02-04T08:38:02;98077.75;;;5.09;100.00
10470;BME280;5282;47.052;15.458;2024-02-04T08:40:29;98083.09;;;5.20;100.00
10470;BME280;5282;47.052;15.458;2024-02-04T08:42:56;98076.44;;;5.37;100.00
10470;BME280;5282;47.052;15.458;2024-02-04T08:45:23;98080.81;;;5.38;100.00
10470;BME280;5282;47.052;15.458;2024-02-04T08:47:50;98075.69;;;5.47;100.00
10470;BME280;5282;47.052;15.458;2024-02-04T08:50:17;98063.78;;;5.74;100.00
10470;BME280;5282;47.052;15.458;2024-02-04T08:52:45;98074.94;;;5.79;100.00
10470;BME280;5282;47.052;15.458;2024-02-04T08:55:12;98074.16;;;5.88;100.00
10470;BME280;5282;47.052;15.458;2024-02-04T08:58:04;98083.28;;;5.97;100.00
10470;BME280;5282;47.052;15.458;2024-02-04T09:00:31;98093.75;;;5.77;100.00
10470;BME280;5282;47.052;15.458;2024-02-04T09:02:58;98097.41;;;5.65;100.00
10470;BME280;5282;47.052;15.458;2024-02-04T09:05:25;98106.16;;;5.44;100.00
10470;BME280;5282;47.052;15.458;2024-02-04T09:07:53;98098.91;;;5.58;100.00
10470;BME280;5282;47.052;15.458;2024-02-04T09:10:20;98087.31;;;5.80;100.00
10470;BME280;5282;47.052;15.458;2024-02-04T09:12:47;98064.59;;;5.85;100.00
10470;BME280;5282;47.052;15.458;2024-02-04T09:15:14;98061.31;;;5.82;100.00
10470;BME280;5282;47.052;15.458;2024-02-04T09:17:41;98087.56;;;5.31;100.00
10470;BME280;5282;47.052;15.458;2024-02-04T09:20:08;98081.59;;;4.93;100.00
10470;BME280;5282;47.052;15.458;2024-02-04T09:22:35;98065.00;;;5.01;100.00
10470;BME280;5282;47.052;15.458;2024-02-04T09:25:05;98074.97;;;5.33;100.00
10470;BME280;5282;47.052;15.458;2024-02-04T09:27:32;98071.53;;;5.54;100.00
10470;BME280;5282;47.052;15.458;2024-02-04T09:30:01;98069.22;;;5.83;100.00
10470;BME280;5282;47.052;15.458;2024-02-04T09:32:27;98067.16;;;6.31;100.00
10470;BME280;5282;47.052;15.458;2024-02-04T09:34:54;98055.66;;;6.73;100.00
10470;BME280;5282;47.052;15.458;2024-02-04T09:37:21;98049.50;;;7.03;100.00
10470;BME280;5282;47.052;15.458;2024-02-04T09:39:48;98046.25;;;7.31;100.00
10470;BME280;5282;47.052;15.458;2024-02-04T09:42:19;98047.31;;;7.49;100.00
10470;BME280;5282;47.052;15.458;2024-02-04T09:44:47;98050.59;;;7.53;100.00
10470;BME280;5282;47.052;15.458;2024-02-04T09:47:15;98050.78;;;7.81;100.00
10470;BME280;5282;47.052;15.458;2024-02-04T09:49:42;98055.81;;;8.25;100.00
10470;BME280;5282;47.052;15.458;2024-02-04T09:52:10;98053.16;;;8.54;100.00
10470;BME280;5282;47.052;15.458;2024-02-04T09:54:44;98039.69;;;8.93;100.00
10470;BME280;5282;47.052;15.458;2024-02-04T09:57:12;98051.84;;;8.98;100.00
10470;BME280;5282;47.052;15.458;2024-02-04T09:59:41;98047.84;;;9.11;100.00
10470;BME280;5282;47.052;15.458;2024-02-04T10:02:09;98038.13;;;9.01;100.00
10470;BME280;5282;47.052;15.458;2024-02-04T10:04:37;98053.56;;;9.36;100.00
10470;BME280;5282;47.052;15.458;2024-02-04T10:07:04;98059.25;;;9.61;100.00
10470;BME280;5282;47.052;15.458;2024-02-04T10:09:32;98049.56;;;9.78;100.00
10470;BME280;5282;47.052;15.458;2024-02-04T10:11:59;98064.19;;;9.66;100.00
10470;BME280;5282;47.052;15.458;2024-02-04T10:14:26;98062.13;;;10.06;100.00
10470;BME280;5282;47.052;15.458;2024-02-04T10:16:55;98045.50;;;10.38;100.00
10470;BME280;5282;47.052;15.458;2024-02-04T10:19:24;98053.41;;;10.58;100.00
10470;BME280;5282;47.052;15.458;2024-02-04T10:21:58;98054.16;;;11.13;100.00
10470;BME280;5282;47.052;15.458;2024-02-04T10:24:25;98041.75;;;11.20;96.68
10470;BME280;5282;47.052;15.458;2024-02-04T10:26:52;98037.13;;;11.38;99.28
10470;BME280;5282;47.052;15.458;2024-02-04T10:29:19;98023.47;;;11.66;95.46
10470;BME280;5282;47.052;15.458;2024-02-04T10:31:46;98023.66;;;12.24;86.41
10470;BME280;5282;47.052;15.458;2024-02-04T10:34:14;98020.13;;;12.40;82.89
10470;BME280;5282;47.052;15.458;2024-02-04T10:36:41;98004.94;;;12.64;80.98
10470;BME280;5282;47.052;15.458;2024-02-04T10:39:08;97992.94;;;12.91;80.56
10470;BME280;5282;47.052;15.458;2024-02-04T10:41:36;97997.09;;;13.19;78.17
10470;BME280;5282;47.052;15.458;2024-02-04T10:44:06;97989.63;;;13.77;73.25
10470;BME280;5282;47.052;15.458;2024-02-04T10:46:39;97984.78;;;13.64;68.74
10470;BME280;5282;47.052;15.458;2024-02-04T10:49:09;97977.09;;;13.76;67.13
10470;BME280;5282;47.052;15.458;2024-02-04T10:51:42;97971.63;;;14.16;66.83
10470;BME280;5282;47.052;15.458;2024-02-04T10:54:10;97978.03;;;14.61;65.46
10470;BME280;5282;47.052;15.458;2024-02-04T10:56:42;97950.03;;;15.07;62.09
10470;BME280;5282;47.052;15.458;2024-02-04T10:59:10;97954.97;;;15.34;61.13
10470;BME280;5282;47.052;15.458;2024-02-04T11:01:38;97960.31;;;15.27;60.75
10470;BME280;5282;47.052;15.458;2024-02-04T11:04:08;97952.53;;;15.54;57.43
10470;BME280;5282;47.052;15.458;2024-02-04T11:06:37;97964.25;;;15.24;57.62
10470;BME280;5282;47.052;15.458;2024-02-04T11:09:08;97960.31;;;15.57;58.69
10470;BME280;5282;47.052;15.458;2024-02-04T11:11:35;97965.84;;;15.34;56.37
10470;BME280;5282;47.052;15.458;2024-02-04T11:14:04;97955.50;;;15.59;55.67
10470;BME280;5282;47.052;15.458;2024-02-04T11:16:46;97950.91;;;15.89;55.77
10470;BME280;5282;47.052;15.458;2024-02-04T11:19:25;97942.44;;;16.43;54.34
10470;BME280;5282;47.052;15.458;2024-02-04T11:22:17;97953.84;;;14.98;55.33
10470;BME280;5282;47.052;15.458;2024-02-04T11:24:59;97955.00;;;15.04;57.98
10470;BME280;5282;47.052;15.458;2024-02-04T11:27:29;97943.84;;;14.84;56.71
10470;BME280;5282;47.052;15.458;2024-02-04T11:29:58;97936.22;;;14.41;56.76
10470;BME280;5282;47.052;15.458;2024-02-04T11:32:25;97921.63;;;15.18;56.01
10470;BME280;5282;47.052;15.458;2024-02-04T11:34:53;97926.84;;;15.05;55.58
10470;BME280;5282;47.052;15.458;2024-02-04T11:37:21;97916.19;;;15.85;55.59
10470;BME280;5282;47.052;15.458;2024-02-04T11:39:50;97920.88;;;15.61;55.53
10470;BME280;5282;47.052;15.458;2024-02-04T11:42:18;97919.22;;;16.40;54.39
10470;BME280;5282;47.052;15.458;2024-02-04T11:44:46;97914.50;;;16.77;52.08
10470;BME280;5282;47.052;15.458;2024-02-04T11:47:22;97913.72;;;17.12;51.07
10470;BME280;5282;47.052;15.458;2024-02-04T11:49:54;97912.63;;;16.78;50.10
10470;BME280;5282;47.052;15.458;2024-02-04T11:52:20;97900.03;;;16.20;52.06
10470;BME280;5282;47.052;15.458;2024-02-04T11:54:47;97902.06;;;16.40;54.29
10470;BME280;5282;47.052;15.458;2024-02-04T11:57:14;97908.47;;;16.54;51.20
10470;BME280;5282;47.052;15.458;2024-02-04T11:59:44;97897.81;;;16.30;52.57
10470;BME280;5282;47.052;15.458;2024-02-04T12:02:11;97897.34;;;16.77;49.46
10470;BME280;5282;47.052;15.458;2024-02-04T12:04:39;97886.94;;;16.87;48.81
10470;BME280;5282;47.052;15.458;2024-02-04T12:07:06;97881.44;;;17.02;49.04
10470;BME280;5282;47.052;15.458;2024-02-04T12:09:34;97878.78;;;17.16;48.80
10470;BME280;5282;47.052;15.458;2024-02-04T12:12:02;97880.00;;;16.78;48.65
10470;BME280;5282;47.052;15.458;2024-02-04T12:14:29;97874.56;;;15.99;51.25
10470;BME280;5282;47.052;15.458;2024-02-04T12:16:58;97872.88;;;16.48;51.12
10470;BME280;5282;47.052;15.458;2024-02-04T12:19:24;97878.16;;;16.50;50.20
10470;BME280;5282;47.052;15.458;2024-02-04T12:21:52;97861.84;;;16.28;51.03
10470;BME280;5282;47.052;15.458;2024-02-04T12:24:20;97852.66;;;16.29;50.30
10470;BME280;5282;47.052;15.458;2024-02-04T12:26:48;97854.22;;;16.74;49.86
10470;BME280;5282;47.052;15.458;2024-02-04T12:29:17;97845.03;;;16.75;49.65
10470;BME280;5282;47.052;15.458;2024-02-04T12:31:44;97838.38;;;16.77;48.43
10470;BME280;5282;47.052;15.458;2024-02-04T12:34:12;97842.66;;;16.30;48.76
10470;BME280;5282;47.052;15.458;2024-02-04T12:36:39;97835.75;;;16.06;48.89
10470;BME280;5282;47.052;15.458;2024-02-04T12:39:06;97849.31;;;15.84;49.40
10470;BME280;5282;47.052;15.458;2024-02-04T12:41:35;97847.88;;;16.31;49.06
10470;BME280;5282;47.052;15.458;2024-02-04T12:44:02;97834.34;;;16.66;48.02
10470;BME280;5282;47.052;15.458;2024-02-04T12:46:30;97846.91;;;16.39;47.14
10470;BME280;5282;47.052;15.458;2024-02-04T12:48:58;97836.19;;;16.31;48.40
10470;BME280;5282;47.052;15.458;2024-02-04T12:51:27;97829.38;;;16.77;45.96
10470;BME280;5282;47.052;15.458;2024-02-04T12:54:04;97825.56;;;16.71;45.12
10470;BME280;5282;47.052;15.458;2024-02-04T12:56:43;97821.22;;;16.77;46.14
10470;BME280;5282;47.052;15.458;2024-02-04T12:59:10;97825.75;;;16.98;45.51
10470;BME280;5282;47.052;15.458;2024-02-04T13:01:37;97821.50;;;16.54;46.77
10470;BME280;5282;47.052;15.458;2024-02-04T13:04:04;97816.13;;;16.95;45.14
10470;BME280;5282;47.052;15.458;2024-02-04T13:06:37;97806.34;;;17.15;45.21